Portada
METAR-TAF:

METAR-TAF

Aeropuertos :

Pohnpei, Micronesia

Aeropuerto Internacional de Pohnpei

latitud: 06-59N, longitud: 158-12E, altitud: 2 m

Observación

El informe se hizo hace 2 horas y 9 minutos, a las 03:50 UTC
Viento 7 kt del este
Temperatura 32°C
Humedad 67%
Presión 1007 hPa
Visibilidad: 24.1 km
Nubes dispersas a una altura de 1800 ft, Cumulus congestus.
Cielo nuboso a una altura de 13000 ft
Cielo cubierto a una altura de 30000 ft

METAR: PTPN 170350Z 09007KT 15SM SCT018TCU BKN130 OVC300 32/25 A2974 RMK TCU W LAST

Hora: 16:59 (05:59 UTC)

Pronóstico

El informe se hizo hace 6 horas y 30 minutos, a las 23:29 UTC
Pronóstico válido del 17 a las 00 UTC al 17 a las 24 UTC
Viento 7 kt del sur-sureste
Visibilidad: 10 km
Nubes dispersas a una altura de 1700 ft
Nubes dispersas a una altura de 5000 ft
Cielo nuboso a una altura de 12000 ft
chaparrones en las proximidades

TAF: PTPN 162329Z 1700/1724 15007KT P6SM VCSH SCT017 SCT050 BKN120

Observaciones y pronósticos meteorológicos de más de 4000 aeropuertos (mensajes METAR y TAF).

Los puntos amarillos y rojos representan las estaciones disponibles.

Ponga el ratón en el punto deseado para ver el nombre de la estación.

Haga clic para ver las observaciones y los pronósticos meteorológicos.

Para cambiar el mapa : haga clic en los botones verdes con una cruz de color negro para hacer un zoom, en el botón verde con un guión para alejar o en las flechas verdes para mapas adyacentes.


METAR-TAF: